createdAt,value
2018-03-03T00:01:40.075Z,94.60
2018-03-03T00:04:06.339Z,94.60
2018-03-03T00:06:32.645Z,95.30
2018-03-03T00:08:59.652Z,95.40
2018-03-03T00:11:25.921Z,95.40
2018-03-03T00:13:52.964Z,95.20
2018-03-03T00:16:19.241Z,95.80
2018-03-03T00:18:45.515Z,94.80
2018-03-03T00:21:11.811Z,95.30
2018-03-03T00:23:38.099Z,95.50
2018-03-03T00:26:05.110Z,95.80
2018-03-03T00:28:31.398Z,95.80
2018-03-03T00:30:57.774Z,95.80
2018-03-03T00:33:24.032Z,95.30
2018-03-03T00:35:51.075Z,95.60
2018-03-03T00:38:18.092Z,95.60
2018-03-03T00:40:44.458Z,95.40
2018-03-03T00:43:10.796Z,95.20
2018-03-03T00:45:37.823Z,95.60
2018-03-03T00:48:04.093Z,95.50
2018-03-03T00:50:30.396Z,95.60
2018-03-03T00:52:57.475Z,95.70
2018-03-03T00:55:23.765Z,95.60
2018-03-03T00:57:50.824Z,96.00
2018-03-03T01:00:17.844Z,95.60
2018-03-03T01:02:44.172Z,95.60
2018-03-03T01:05:11.563Z,96.20
2018-03-03T01:07:37.868Z,96.10
2018-03-03T01:10:04.168Z,96.10
2018-03-03T01:12:30.488Z,96.40
2018-03-03T01:14:56.810Z,96.50
2018-03-03T01:17:23.106Z,96.10
2018-03-03T01:19:50.224Z,96.10
2018-03-03T01:22:16.500Z,96.10
2018-03-03T01:24:42.790Z,95.90
2018-03-03T01:27:09.087Z,95.70
2018-03-03T01:29:35.391Z,95.70
2018-03-03T01:32:01.664Z,95.80
2018-03-03T01:34:27.991Z,95.70
2018-03-03T01:36:54.262Z,95.60
2018-03-03T01:39:21.344Z,95.40
2018-03-03T01:41:47.656Z,95.40
2018-03-03T01:44:13.927Z,95.60
2018-03-03T01:46:40.239Z,95.50
2018-03-03T01:49:06.572Z,95.80
2018-03-03T01:51:41.139Z,95.80
2018-03-03T01:54:07.477Z,96.00
2018-03-03T01:56:33.759Z,96.10
2018-03-03T01:59:00.031Z,96.20
2018-03-03T02:01:27.088Z,96.20
2018-03-03T02:03:53.367Z,96.00
2018-03-03T02:06:19.645Z,95.90
2018-03-03T02:08:45.942Z,95.80
2018-03-03T02:11:12.228Z,96.10
2018-03-03T02:13:39.254Z,95.70
2018-03-03T02:16:05.550Z,95.80
2018-03-03T02:18:31.825Z,95.80
2018-03-03T02:20:58.862Z,96.20
2018-03-03T02:23:25.923Z,96.60
2018-03-03T02:25:52.187Z,96.20
2018-03-03T02:28:18.444Z,95.70
2018-03-03T02:30:44.744Z,96.00
2018-03-03T02:33:11.008Z,96.10
2018-03-03T02:35:37.277Z,95.80
2018-03-03T02:38:03.575Z,95.60
2018-03-03T02:40:29.855Z,95.50
2018-03-03T02:42:56.124Z,95.30
2018-03-03T02:45:22.435Z,95.20
2018-03-03T02:47:48.729Z,95.10
2018-03-03T02:50:15.731Z,95.10
2018-03-03T02:52:42.067Z,95.10
2018-03-03T02:55:08.324Z,95.00
2018-03-03T02:57:35.332Z,94.80
2018-03-03T03:00:01.615Z,94.60
2018-03-03T03:02:27.913Z,94.90
2018-03-03T03:04:54.186Z,94.70
2018-03-03T03:07:20.521Z,94.20
2018-03-03T03:09:46.803Z,94.40
2018-03-03T03:12:13.838Z,94.10
2018-03-03T03:14:40.156Z,94.00
2018-03-03T03:17:06.460Z,94.20
2018-03-03T03:19:32.730Z,93.60
2018-03-03T03:21:59.051Z,94.10
2018-03-03T03:24:25.356Z,93.60
2018-03-03T03:26:51.667Z,94.00
2018-03-03T03:29:18.697Z,93.90
2018-03-03T03:31:44.971Z,93.90
2018-03-03T03:34:11.287Z,93.80
2018-03-03T03:36:37.584Z,92.90
2018-03-03T03:39:03.886Z,93.50
2018-03-03T03:41:30.151Z,92.80
2018-03-03T03:43:57.190Z,93.30
2018-03-03T03:46:23.458Z,93.10
2018-03-03T03:48:49.820Z,93.30
2018-03-03T03:51:16.116Z,93.20
2018-03-03T03:53:42.384Z,93.00
2018-03-03T03:56:08.649Z,93.00
2018-03-03T03:58:34.972Z,93.20
2018-03-03T04:01:01.260Z,93.50
2018-03-03T04:03:27.561Z,93.20
2018-03-03T04:05:53.835Z,93.00
2018-03-03T04:08:20.144Z,93.00
2018-03-03T04:10:46.447Z,92.90
2018-03-03T04:13:12.772Z,93.20
2018-03-03T04:15:39.804Z,93.10
2018-03-03T04:18:06.067Z,93.00
2018-03-03T04:20:32.388Z,93.20
2018-03-03T04:22:58.676Z,93.00
2018-03-03T04:25:24.987Z,92.80
2018-03-03T04:27:51.322Z,92.70
2018-03-03T04:30:17.656Z,92.50
2018-03-03T04:32:43.953Z,92.80
2018-03-03T04:35:10.312Z,92.70
2018-03-03T04:37:36.607Z,92.80
2018-03-03T04:40:02.877Z,92.50
2018-03-03T04:42:29.180Z,92.10
2018-03-03T04:44:55.543Z,92.20
2018-03-03T04:47:21.871Z,92.40
2018-03-03T04:49:48.132Z,92.10
2018-03-03T04:52:14.504Z,92.20
2018-03-03T04:54:40.859Z,91.50
2018-03-03T04:57:07.175Z,92.40
2018-03-03T04:59:39.398Z,92.30
2018-03-03T05:02:05.687Z,92.20
2018-03-03T05:07:45.843Z,91.60
2018-03-03T05:10:12.156Z,92.20
2018-03-03T05:12:40.379Z,92.20
2018-03-03T05:18:25.520Z,92.20
2018-03-03T05:20:56.667Z,92.20
2018-03-03T05:23:29.055Z,92.30
2018-03-03T05:29:26.831Z,92.10
2018-03-03T05:31:59.103Z,92.10
2018-03-03T05:34:31.443Z,92.10
2018-03-03T05:37:03.736Z,92.10
2018-03-03T05:39:36.792Z,91.50
2018-03-03T05:42:09.027Z,91.60
2018-03-03T05:44:41.268Z,92.30
2018-03-03T05:47:13.555Z,92.10
2018-03-03T05:53:06.331Z,92.30
2018-03-03T05:58:55.062Z,91.90
2018-03-03T06:01:27.278Z,92.40
2018-03-03T06:07:01.130Z,92.20
2018-03-03T06:09:32.455Z,92.30
2018-03-03T06:11:58.755Z,92.40
2018-03-03T06:14:25.811Z,92.20
2018-03-03T06:16:52.120Z,92.20
2018-03-03T06:19:19.162Z,91.90
2018-03-03T06:21:45.441Z,92.00
2018-03-03T06:24:11.723Z,92.10
2018-03-03T06:26:38.019Z,92.00
2018-03-03T06:29:04.340Z,91.80
2018-03-03T06:31:30.621Z,91.80
2018-03-03T06:33:57.683Z,92.00
2018-03-03T06:36:24.707Z,91.80
2018-03-03T06:38:51.010Z,91.90
2018-03-03T06:41:17.280Z,91.90
2018-03-03T06:43:44.309Z,91.50
2018-03-03T06:46:10.662Z,91.40
2018-03-03T06:48:36.945Z,91.40
2018-03-03T06:51:03.262Z,91.20
2018-03-03T06:53:29.542Z,91.40
2018-03-03T06:55:56.663Z,90.80
2018-03-03T06:58:22.936Z,91.30
2018-03-03T07:00:49.972Z,91.40
2018-03-03T07:03:16.253Z,91.20
2018-03-03T07:05:42.546Z,91.00
2018-03-03T07:08:09.609Z,91.20
2018-03-03T07:10:35.964Z,91.20
2018-03-03T07:13:02.304Z,90.80
2018-03-03T07:15:28.628Z,90.80
2018-03-03T07:17:54.937Z,90.70
2018-03-03T07:20:21.252Z,90.20
2018-03-03T07:22:47.642Z,90.90
2018-03-03T07:25:13.964Z,89.90
2018-03-03T07:27:40.249Z,90.60
2018-03-03T07:30:06.577Z,90.70
2018-03-03T07:32:32.858Z,90.70
2018-03-03T07:34:59.175Z,90.80
2018-03-03T07:37:25.442Z,90.60
2018-03-03T07:39:51.787Z,90.60
2018-03-03T07:42:18.818Z,90.70
2018-03-03T07:44:45.096Z,90.60
2018-03-03T07:47:11.471Z,90.20
2018-03-03T07:49:37.820Z,90.40
2018-03-03T07:52:04.861Z,90.60
2018-03-03T07:54:31.159Z,90.70
2018-03-03T07:57:09.688Z,90.20
2018-03-03T07:59:35.969Z,90.60
2018-03-03T08:02:02.295Z,90.50
2018-03-03T08:04:29.315Z,90.00
2018-03-03T08:06:55.665Z,90.00
2018-03-03T08:09:22.716Z,90.00
2018-03-03T08:11:50.031Z,90.10
2018-03-03T08:14:16.376Z,90.10
2018-03-03T08:16:42.662Z,90.00
2018-03-03T08:19:08.955Z,90.10
2018-03-03T08:21:35.984Z,90.30
2018-03-03T08:24:02.267Z,90.30
2018-03-03T08:26:28.552Z,90.00
2018-03-03T08:28:55.596Z,89.20
2018-03-03T08:31:21.852Z,89.40
2018-03-03T08:33:48.151Z,89.30
2018-03-03T08:36:14.453Z,89.40
2018-03-03T08:38:40.731Z,89.00
2018-03-03T08:41:07.749Z,88.60
2018-03-03T08:43:34.048Z,88.60
2018-03-03T08:46:01.200Z,88.30
2018-03-03T08:48:27.484Z,87.70
2018-03-03T08:50:54.546Z,88.70
2018-03-03T08:53:20.860Z,88.40
2018-03-03T08:55:47.868Z,88.00
2018-03-03T08:58:14.147Z,88.10
2018-03-03T09:00:41.172Z,87.00
2018-03-03T09:03:07.565Z,87.00
2018-03-03T09:05:33.853Z,88.50
2018-03-03T09:08:00.889Z,89.40
2018-03-03T09:10:27.822Z,89.60
2018-03-03T09:12:54.194Z,89.00
2018-03-03T09:15:20.495Z,88.70
2018-03-03T09:17:46.767Z,88.10
2018-03-03T09:20:13.048Z,88.70
2018-03-03T09:22:39.450Z,88.60
2018-03-03T09:25:05.738Z,89.00
2018-03-03T09:27:32.759Z,89.10
2018-03-03T09:29:59.068Z,89.30
2018-03-03T09:32:25.348Z,89.10
2018-03-03T09:34:52.400Z,89.80
2018-03-03T09:37:18.689Z,90.00
2018-03-03T09:39:44.972Z,88.60
2018-03-03T09:42:11.288Z,89.60
2018-03-03T09:44:37.677Z,88.80
2018-03-03T09:47:04.774Z,87.90
2018-03-03T09:49:31.104Z,87.00
2018-03-03T09:51:57.448Z,85.70
2018-03-03T09:54:23.747Z,84.90
2018-03-03T09:56:50.772Z,80.70
2018-03-03T09:59:17.052Z,81.00
2018-03-03T10:01:43.544Z,79.80
2018-03-03T10:04:09.762Z,81.30
2018-03-03T10:06:36.041Z,82.10
2018-03-03T10:09:02.368Z,82.60
2018-03-03T10:11:28.663Z,83.10
2018-03-03T10:13:54.942Z,83.50
2018-03-03T10:16:21.252Z,81.70
2018-03-03T10:18:48.277Z,80.10
2018-03-03T10:21:14.567Z,80.10
2018-03-03T10:23:40.825Z,79.60
2018-03-03T10:26:07.135Z,78.20
2018-03-03T10:28:33.405Z,76.20
2018-03-03T10:31:00.495Z,76.80
2018-03-03T10:33:26.774Z,76.60
2018-03-03T10:35:53.090Z,75.60
2018-03-03T10:38:19.422Z,74.90
2018-03-03T10:40:45.688Z,72.40
2018-03-03T10:43:12.765Z,75.50
2018-03-03T10:45:39.054Z,75.50
2018-03-03T10:48:06.131Z,75.60
2018-03-03T10:50:32.449Z,75.60
2018-03-03T10:52:58.756Z,72.60
2018-03-03T10:55:25.066Z,73.00
2018-03-03T10:57:51.352Z,73.30
2018-03-03T11:00:23.740Z,72.20
2018-03-03T11:02:50.057Z,73.40
2018-03-03T11:05:16.363Z,73.30
2018-03-03T11:07:43.373Z,69.00
2018-03-03T11:10:09.703Z,69.20
2018-03-03T11:12:36.009Z,71.30
2018-03-03T11:15:02.307Z,73.60
2018-03-03T11:17:29.336Z,76.00
2018-03-03T11:19:55.636Z,75.90
2018-03-03T11:22:21.931Z,74.60
2018-03-03T11:24:48.208Z,74.40
2018-03-03T11:27:14.504Z,73.00
2018-03-03T11:29:40.796Z,73.30
2018-03-03T11:32:14.709Z,76.50
2018-03-03T11:34:41.726Z,76.70
2018-03-03T11:37:07.998Z,76.90
2018-03-03T11:39:35.017Z,76.60
2018-03-03T11:42:01.306Z,76.20
2018-03-03T11:44:27.585Z,78.50
2018-03-03T11:46:54.640Z,78.40
2018-03-03T11:49:21.664Z,79.50
2018-03-03T11:51:47.928Z,79.50
2018-03-03T11:54:14.965Z,80.10
2018-03-03T11:56:41.991Z,80.20
2018-03-03T11:59:08.314Z,80.10
2018-03-03T12:01:34.609Z,80.70
2018-03-03T12:04:00.905Z,79.50
2018-03-03T12:06:27.936Z,79.30
2018-03-03T12:08:54.285Z,79.00
2018-03-03T12:11:21.383Z,79.90
2018-03-03T12:13:47.651Z,80.10
2018-03-03T12:16:13.955Z,80.50
2018-03-03T12:18:40.229Z,81.10
2018-03-03T12:21:07.255Z,78.70
2018-03-03T12:23:33.529Z,78.70
2018-03-03T12:25:59.944Z,78.00
2018-03-03T12:28:26.224Z,77.80
2018-03-03T12:30:52.498Z,77.70
2018-03-03T12:33:18.808Z,79.70
2018-03-03T12:35:45.086Z,80.20
2018-03-03T12:38:11.351Z,79.00
2018-03-03T12:40:37.648Z,78.40
2018-03-03T12:43:03.923Z,79.70
2018-03-03T12:45:30.207Z,80.40
2018-03-03T12:47:56.481Z,79.80
2018-03-03T12:50:22.868Z,77.90
2018-03-03T12:52:49.178Z,77.40
2018-03-03T12:55:15.541Z,76.60
2018-03-03T12:57:41.848Z,80.00
2018-03-03T13:00:08.191Z,79.10
2018-03-03T13:02:34.498Z,79.00
2018-03-03T13:05:00.824Z,79.00
2018-03-03T13:07:27.908Z,80.30
2018-03-03T13:09:54.232Z,79.90
2018-03-03T13:12:20.512Z,80.20
2018-03-03T13:14:47.568Z,79.70
2018-03-03T13:17:14.613Z,78.80
2018-03-03T13:19:40.918Z,79.00
2018-03-03T13:22:07.261Z,78.50
2018-03-03T13:24:33.536Z,78.70
2018-03-03T13:26:59.860Z,76.50
2018-03-03T13:29:26.131Z,76.30
2018-03-03T13:31:52.460Z,77.50
2018-03-03T13:34:18.747Z,77.50
2018-03-03T13:36:45.767Z,79.50
2018-03-03T13:39:12.053Z,79.00
2018-03-03T13:41:38.399Z,79.40
2018-03-03T13:44:04.697Z,79.30
2018-03-03T13:46:30.989Z,79.50
2018-03-03T13:48:57.267Z,79.20
2018-03-03T13:51:23.553Z,80.60
2018-03-03T13:53:49.836Z,78.80
2018-03-03T13:56:16.903Z,78.10
2018-03-03T13:58:43.194Z,78.10
2018-03-03T14:01:09.521Z,75.80
2018-03-03T14:03:35.771Z,75.00
2018-03-03T14:06:02.050Z,76.50
2018-03-03T14:08:28.316Z,77.70
2018-03-03T14:10:54.611Z,75.10
2018-03-03T14:13:20.901Z,76.20
2018-03-03T14:15:47.207Z,77.10
2018-03-03T14:18:13.471Z,76.50
2018-03-03T14:20:40.299Z,76.80
2018-03-03T14:23:06.576Z,76.80
2018-03-03T14:25:33.595Z,75.00
2018-03-03T14:27:59.879Z,75.00
2018-03-03T14:30:26.180Z,76.80
2018-03-03T14:32:52.462Z,76.60
2018-03-03T14:35:18.735Z,77.50
2018-03-03T14:37:45.122Z,76.60
2018-03-03T14:40:11.404Z,75.40
2018-03-03T14:42:38.532Z,74.70
2018-03-03T14:45:04.856Z,74.60
2018-03-03T14:47:31.184Z,76.90
2018-03-03T14:49:58.252Z,76.20
2018-03-03T14:52:24.542Z,76.10
2018-03-03T14:54:50.847Z,76.70
2018-03-03T14:57:17.840Z,77.40
2018-03-03T14:59:44.124Z,77.50
2018-03-03T15:02:10.395Z,78.10
2018-03-03T15:04:36.703Z,79.30
2018-03-03T15:07:03.069Z,80.10
2018-03-03T15:09:29.336Z,79.10
2018-03-03T15:11:56.372Z,80.50
2018-03-03T15:14:22.652Z,80.30
2018-03-03T15:16:48.960Z,81.50
2018-03-03T15:19:15.294Z,81.80
2018-03-03T15:21:41.580Z,82.60
2018-03-03T15:24:07.888Z,81.70
2018-03-03T15:26:34.283Z,81.30
2018-03-03T15:29:00.566Z,82.90
2018-03-03T15:31:26.862Z,82.00
2018-03-03T15:33:53.119Z,82.90
2018-03-03T15:36:19.384Z,82.90
2018-03-03T15:38:47.227Z,83.40
2018-03-03T15:41:13.498Z,83.40
2018-03-03T15:43:39.808Z,82.70
2018-03-03T15:46:06.843Z,83.30
2018-03-03T15:48:33.142Z,83.30
2018-03-03T15:50:59.437Z,83.00
2018-03-03T15:53:25.704Z,82.80
2018-03-03T15:55:52.027Z,82.70
2018-03-03T15:58:18.284Z,83.70
2018-03-03T16:00:44.588Z,83.20
2018-03-03T16:03:10.889Z,82.90
2018-03-03T16:05:37.180Z,83.10
2018-03-03T16:08:04.224Z,82.00
2018-03-03T16:10:30.496Z,82.10
2018-03-03T16:12:56.799Z,82.00
2018-03-03T16:15:23.068Z,81.90
2018-03-03T16:17:49.375Z,82.10
2018-03-03T16:20:16.398Z,82.00
2018-03-03T16:22:42.728Z,82.00
2018-03-03T16:25:09.023Z,83.30
2018-03-03T16:27:35.292Z,84.80
2018-03-03T16:30:01.565Z,84.70
2018-03-03T16:32:27.824Z,83.90
2018-03-03T16:34:54.115Z,84.30
2018-03-03T16:37:20.409Z,84.20
2018-03-03T16:39:47.447Z,84.60
2018-03-03T16:42:13.755Z,84.60
2018-03-03T16:44:40.054Z,85.50
2018-03-03T16:47:06.416Z,85.60
2018-03-03T16:49:32.715Z,85.90
2018-03-03T16:51:59.027Z,86.50
2018-03-03T16:54:25.303Z,87.10
2018-03-03T16:56:51.624Z,87.10
2018-03-03T16:59:17.962Z,86.70
2018-03-03T17:01:44.296Z,87.70
2018-03-03T17:04:10.583Z,87.60
2018-03-03T17:06:38.110Z,87.90
2018-03-03T17:09:05.159Z,87.70
2018-03-03T17:11:31.471Z,87.60
2018-03-03T17:13:57.791Z,88.10
2018-03-03T17:16:24.063Z,88.30
2018-03-03T17:18:51.106Z,88.40
2018-03-03T17:21:17.484Z,88.50
2018-03-03T17:23:43.793Z,88.60
2018-03-03T17:26:10.131Z,88.70
2018-03-03T17:28:36.436Z,88.60
2018-03-03T17:31:02.711Z,88.60
2018-03-03T17:33:29.040Z,89.60
2018-03-03T17:35:55.307Z,89.30
2018-03-03T17:38:21.588Z,89.60
2018-03-03T17:40:47.900Z,89.70
2018-03-03T17:43:14.212Z,89.80
2018-03-03T17:45:40.491Z,89.70
2018-03-03T17:48:06.781Z,89.60
2018-03-03T17:50:33.831Z,90.10
2018-03-03T17:53:00.119Z,90.10
2018-03-03T17:55:26.481Z,90.00
2018-03-03T17:57:52.791Z,90.00
2018-03-03T18:00:19.156Z,90.20
2018-03-03T18:02:46.263Z,90.10
2018-03-03T18:05:12.580Z,90.00
2018-03-03T18:07:38.880Z,90.10
2018-03-03T18:10:05.217Z,90.10
2018-03-03T18:12:31.519Z,90.20
2018-03-03T18:14:57.857Z,90.10
2018-03-03T18:17:24.912Z,90.30
2018-03-03T18:19:51.932Z,90.40
2018-03-03T18:22:19.005Z,90.60
2018-03-03T18:24:46.058Z,90.30
2018-03-03T18:27:13.083Z,90.30
2018-03-03T18:29:39.379Z,90.30
2018-03-03T18:32:05.655Z,90.60
2018-03-03T18:34:32.675Z,90.40
2018-03-03T18:36:59.664Z,90.30
2018-03-03T18:39:26.707Z,90.30
2018-03-03T18:41:53.759Z,90.30
2018-03-03T18:44:20.787Z,90.50
2018-03-03T18:46:47.119Z,90.50
2018-03-03T18:49:14.145Z,90.50
2018-03-03T18:51:40.435Z,90.60
2018-03-03T18:54:06.734Z,90.60
2018-03-03T18:56:33.827Z,90.70
2018-03-03T18:59:00.128Z,90.70
2018-03-03T19:01:27.163Z,90.60
2018-03-03T19:03:53.561Z,90.60
2018-03-03T19:06:19.856Z,90.50
2018-03-03T19:08:46.201Z,90.40
2018-03-03T19:11:12.483Z,90.60
2018-03-03T19:13:39.568Z,90.70
2018-03-03T19:16:05.831Z,90.60
2018-03-03T19:18:32.120Z,90.50
2018-03-03T19:20:58.399Z,90.70
2018-03-03T19:23:24.708Z,90.50
2018-03-03T19:25:50.996Z,90.50
2018-03-03T19:28:18.020Z,90.50
2018-03-03T19:30:44.305Z,90.40
2018-03-03T19:33:10.604Z,90.30
2018-03-03T19:35:36.933Z,90.30
2018-03-03T19:38:03.267Z,90.30
2018-03-03T19:40:29.595Z,90.40
2018-03-03T19:42:56.592Z,90.10
2018-03-03T19:45:22.860Z,90.10
2018-03-03T19:47:49.917Z,90.00
2018-03-03T19:50:16.944Z,90.00
2018-03-03T19:52:43.232Z,90.00
2018-03-03T19:55:09.516Z,90.10
2018-03-03T19:57:36.532Z,90.00
2018-03-03T20:00:02.864Z,90.10
2018-03-03T20:02:29.141Z,90.00
2018-03-03T20:04:55.447Z,90.00
2018-03-03T20:07:21.722Z,90.00
2018-03-03T20:09:47.989Z,90.00
2018-03-03T20:12:14.267Z,89.80
2018-03-03T20:14:40.544Z,89.50
2018-03-03T20:17:06.823Z,89.60
2018-03-03T20:19:33.097Z,89.10
2018-03-03T20:21:59.540Z,89.20
2018-03-03T20:24:25.700Z,89.80
2018-03-03T20:26:52.732Z,89.40
2018-03-03T20:29:18.995Z,89.60
2018-03-03T20:31:45.289Z,90.00
2018-03-03T20:34:12.320Z,89.60
2018-03-03T20:36:38.672Z,89.40
2018-03-03T20:39:04.948Z,89.50
2018-03-03T20:41:31.229Z,88.50
2018-03-03T20:43:57.557Z,89.80
2018-03-03T20:46:24.576Z,89.70
2018-03-03T20:48:50.939Z,89.60
2018-03-03T20:51:17.981Z,89.40
2018-03-03T20:53:44.270Z,89.70
2018-03-03T20:56:10.594Z,89.70
2018-03-03T20:58:36.856Z,89.60
2018-03-03T21:01:03.187Z,89.60
2018-03-03T21:03:29.468Z,89.30
2018-03-03T21:05:55.764Z,89.90
2018-03-03T21:08:22.049Z,89.30
2018-03-03T21:10:48.383Z,89.80
2018-03-03T21:13:14.685Z,89.50
2018-03-03T21:15:41.717Z,89.80
2018-03-03T21:18:08.733Z,89.60
2018-03-03T21:20:35.015Z,89.80
2018-03-03T21:23:01.344Z,89.60
2018-03-03T21:25:27.643Z,89.60
2018-03-03T21:27:53.947Z,89.80
2018-03-03T21:30:20.227Z,90.00
2018-03-03T21:32:47.276Z,89.70
2018-03-03T21:35:13.548Z,89.70
2018-03-03T21:37:39.866Z,89.70
2018-03-03T21:40:06.196Z,89.80
2018-03-03T21:42:32.486Z,89.90
2018-03-03T21:44:59.544Z,90.10
2018-03-03T21:47:25.864Z,89.70
2018-03-03T21:49:52.952Z,89.70
2018-03-03T21:52:19.247Z,89.90
2018-03-03T21:54:46.276Z,89.80
2018-03-03T21:57:12.557Z,89.80
2018-03-03T21:59:38.884Z,89.90
2018-03-03T22:02:05.945Z,90.20
2018-03-03T22:04:32.231Z,89.80
2018-03-03T22:06:59.316Z,89.40
2018-03-03T22:09:25.621Z,89.40
2018-03-03T22:11:51.946Z,89.50
2018-03-03T22:14:18.978Z,90.00
2018-03-03T22:16:45.426Z,89.60
2018-03-03T22:19:11.756Z,89.70
2018-03-03T22:21:38.772Z,90.00
2018-03-03T22:24:05.062Z,90.00
2018-03-03T22:26:31.344Z,89.80
2018-03-03T22:28:58.392Z,90.00
2018-03-03T22:31:24.669Z,89.80
2018-03-03T22:33:50.962Z,90.00
2018-03-03T22:36:18.000Z,90.00
2018-03-03T22:38:44.287Z,90.00
2018-03-03T22:41:10.575Z,90.00
2018-03-03T22:43:37.613Z,89.70
2018-03-03T22:46:04.671Z,89.80
2018-03-03T22:48:31.703Z,89.60
2018-03-03T22:50:57.979Z,89.60
2018-03-03T22:53:24.306Z,90.00
2018-03-03T22:55:50.603Z,89.90
2018-03-03T22:58:17.652Z,89.90
2018-03-03T23:00:44.680Z,90.00
2018-03-03T23:03:10.931Z,90.10
2018-03-03T23:05:37.971Z,89.80
2018-03-03T23:08:04.240Z,89.80
2018-03-03T23:10:30.516Z,90.10
2018-03-03T23:12:56.812Z,90.00
2018-03-03T23:15:23.088Z,89.60
2018-03-03T23:17:50.127Z,90.30
2018-03-03T23:20:16.380Z,89.70
2018-03-03T23:22:43.416Z,89.90
2018-03-03T23:25:10.427Z,90.00
2018-03-03T23:27:36.720Z,90.10
2018-03-03T23:30:03.002Z,89.50
2018-03-03T23:32:29.352Z,89.60
2018-03-03T23:34:55.617Z,89.60
2018-03-03T23:37:21.872Z,89.70
2018-03-03T23:39:48.177Z,89.40
2018-03-03T23:42:14.432Z,89.00
2018-03-03T23:44:40.715Z,89.50
2018-03-03T23:47:07.743Z,90.00
2018-03-03T23:49:34.039Z,90.10
2018-03-03T23:52:00.303Z,90.20
2018-03-03T23:54:26.587Z,90.10
2018-03-03T23:56:52.864Z,90.20
2018-03-03T23:59:19.151Z,90.40
